Time;durP1;ratioP1;P1;durP2;ratioP2;P2;SDS_P1;SDS_P2;PMS_P1;PMS_P2;Temp;Humidity;BMP_temperature;BMP_pressure;BME280_temperature;BME280_humidity;BME280_pressure;Samples;Min_cycle;Max_cycle;Signal;HPM_P1;HPM_P2
2023/04/20 00:00:37;;;;;;;8.07;3.53;;;9.10;99.10;;;;;;4771750;30;20199;-82
2023/04/20 00:03:03;;;;;;;3.75;2.80;;;9.00;99.10;;;;;;4787557;30;20220;-78
2023/04/20 00:05:30;;;;;;;5.20;3.00;;;9.10;99.20;;;;;;4788133;30;20195;-79
2023/04/20 00:07:57;;;;;;;11.00;3.00;;;9.10;99.20;;;;;;4756903;30;20419;-78
2023/04/20 00:10:23;;;;;;;6.05;2.72;;;9.10;99.20;;;;;;4785353;30;20264;-78
2023/04/20 00:12:49;;;;;;;8.90;2.65;;;9.10;99.20;;;;;;4784977;30;20327;-78
2023/04/20 00:15:14;;;;;;;6.22;2.67;;;9.10;99.20;;;;;;4787816;29;20240;-79
2023/04/20 00:17:40;;;;;;;8.02;2.70;;;9.20;99.30;;;;;;4787060;30;20202;-79
2023/04/20 00:20:08;;;;;;;5.35;2.50;;;9.20;99.30;;;;;;4787773;30;20199;-79
2023/04/20 00:22:34;;;;;;;9.18;2.50;;;9.20;99.30;;;;;;4766191;30;20267;-79
2023/04/20 00:25:00;;;;;;;12.25;2.30;;;9.30;99.30;;;;;;4749595;30;20193;-78
2023/04/20 00:27:27;;;;;;;6.05;2.63;;;9.30;99.30;;;;;;4787421;30;20200;-78
2023/04/20 00:29:53;;;;;;;7.38;2.40;;;9.20;99.30;;;;;;4756812;30;20204;-78
2023/04/20 00:32:18;;;;;;;6.18;2.13;;;9.30;99.30;;;;;;4787865;30;20189;-79
2023/04/20 00:34:47;;;;;;;5.80;2.05;;;9.30;99.30;;;;;;4756981;30;20246;-78
2023/04/20 00:37:12;;;;;;;4.80;2.42;;;9.30;99.30;;;;;;4771714;30;20200;-78
2023/04/20 00:39:40;;;;;;;9.13;2.33;;;9.40;99.40;;;;;;4787916;29;20268;-81
2023/04/20 00:42:08;;;;;;;6.93;2.50;;;9.40;99.40;;;;;;4770704;30;20311;-78
2023/04/20 00:44:34;;;;;;;6.05;2.50;;;9.40;99.50;;;;;;4773039;30;20276;-79
2023/04/20 00:47:00;;;;;;;6.85;2.25;;;9.40;99.70;;;;;;4775366;29;20281;-79
2023/04/20 00:49:31;;;;;;;5.30;2.45;;;9.40;99.70;;;;;;4782082;30;20191;-78
2023/04/20 00:51:58;;;;;;;4.95;2.38;;;9.40;99.80;;;;;;4771733;30;20212;-78
2023/04/20 00:54:25;;;;;;;7.35;2.70;;;9.40;99.90;;;;;;4756848;30;20190;-78
2023/04/20 00:56:51;;;;;;;9.25;2.45;;;9.40;99.90;;;;;;4789249;29;20193;-78
2023/04/20 00:59:17;;;;;;;8.55;2.53;;;9.40;99.90;;;;;;4774269;30;20177;-78
2023/04/20 01:01:44;;;;;;;4.32;2.13;;;9.40;99.90;;;;;;4767240;30;20670;-78
2023/04/20 01:04:10;;;;;;;4.63;2.25;;;9.40;99.90;;;;;;4784072;29;20220;-79
2023/04/20 01:06:36;;;;;;;5.85;2.00;;;9.40;99.90;;;;;;4759327;30;20227;-81
2023/04/20 01:09:02;;;;;;;7.68;2.60;;;9.40;99.90;;;;;;4769860;30;20232;-78
2023/04/20 01:11:29;;;;;;;9.15;2.85;;;9.40;99.90;;;;;;4774583;30;20193;-78
2023/04/20 01:13:54;;;;;;;7.18;2.70;;;9.40;99.90;;;;;;4758920;29;20181;-76
2023/04/20 01:16:21;;;;;;;9.77;2.50;;;9.40;99.90;;;;;;4755760;29;20216;-79
2023/04/20 01:18:49;;;;;;;6.68;2.72;;;9.40;99.90;;;;;;4783405;30;20188;-77
2023/04/20 01:21:18;;;;;;;6.68;2.70;;;9.40;99.90;;;;;;4773824;30;20192;-77
2023/04/20 01:23:44;;;;;;;8.80;2.40;;;9.40;99.90;;;;;;4774151;30;20565;-77
2023/04/20 01:26:14;;;;;;;5.07;2.50;;;9.40;99.90;;;;;;4772453;30;20325;-82
2023/04/20 01:28:41;;;;;;;6.53;2.30;;;9.40;99.90;;;;;;4779948;30;20188;-77
2023/04/20 01:31:08;;;;;;;7.03;2.33;;;9.40;99.90;;;;;;4758941;30;20189;-78
2023/04/20 01:33:34;;;;;;;8.73;2.25;;;9.40;99.90;;;;;;4789763;30;20196;-77
2023/04/20 01:36:00;;;;;;;4.47;2.30;;;9.40;99.90;;;;;;4772013;30;20189;-77
2023/04/20 01:38:30;;;;;;;10.02;2.60;;;9.40;99.90;;;;;;4775117;29;20181;-77
2023/04/20 01:41:00;;;;;;;5.20;2.33;;;9.40;99.90;;;;;;4766988;30;20268;-79
2023/04/20 01:43:26;;;;;;;11.40;2.63;;;9.40;99.90;;;;;;4773449;30;20232;-78
2023/04/20 01:45:52;;;;;;;5.95;2.17;;;9.40;99.90;;;;;;4773547;30;20273;-78
2023/04/20 01:48:18;;;;;;;11.73;2.30;;;9.30;99.90;;;;;;4773110;30;20265;-78
2023/04/20 01:50:44;;;;;;;5.45;2.35;;;9.30;99.90;;;;;;4771813;30;20196;-78
2023/04/20 01:53:12;;;;;;;9.20;2.35;;;9.30;99.90;;;;;;4763904;30;20735;-78
2023/04/20 01:55:38;;;;;;;5.43;2.40;;;9.30;99.90;;;;;;4773954;30;20642;-77
2023/04/20 01:58:04;;;;;;;6.78;2.42;;;9.20;99.90;;;;;;4770878;29;20272;-78
2023/04/20 02:00:30;;;;;;;5.15;2.53;;;9.20;99.90;;;;;;4772208;30;20722;-77
2023/04/20 02:02:58;;;;;;;10.52;2.67;;;9.20;99.90;;;;;;4763480;29;20229;-78
2023/04/20 02:05:23;;;;;;;6.65;2.72;;;9.20;99.90;;;;;;4755564;30;20243;-78
2023/04/20 02:07:50;;;;;;;8.30;2.85;;;9.10;99.90;;;;;;4755244;30;20197;-77
2023/04/20 02:10:16;;;;;;;5.07;2.45;;;9.10;99.90;;;;;;4755561;30;20220;-77
2023/04/20 02:12:44;;;;;;;15.60;2.83;;;9.00;99.90;;;;;;4776492;29;20200;-79
2023/04/20 02:15:10;;;;;;;6.45;2.30;;;9.00;99.90;;;;;;4770200;30;20242;-78
2023/04/20 02:17:36;;;;;;;8.75;2.72;;;9.00;99.90;;;;;;4768467;30;20193;-77
2023/04/20 02:20:06;;;;;;;8.98;2.70;;;8.90;99.90;;;;;;4744116;30;20564;-77
2023/04/20 02:22:33;;;;;;;8.30;2.60;;;8.90;99.90;;;;;;4782000;29;20220;-78
2023/04/20 02:25:00;;;;;;;10.10;2.78;;;8.90;99.90;;;;;;4787282;30;20639;-77
2023/04/20 02:27:27;;;;;;;7.55;2.95;;;8.90;99.90;;;;;;4777505;30;20563;-78
2023/04/20 02:29:53;;;;;;;8.55;2.97;;;8.80;99.90;;;;;;4772564;30;20220;-77
2023/04/20 02:32:18;;;;;;;10.15;3.03;;;8.80;99.90;;;;;;4763430;30;20229;-78
2023/04/20 02:34:45;;;;;;;8.15;2.78;;;8.80;99.90;;;;;;4754256;30;20192;-77
2023/04/20 02:37:10;;;;;;;8.38;2.90;;;8.70;99.90;;;;;;4766472;30;20555;-77
2023/04/20 02:39:36;;;;;;;13.13;2.92;;;8.70;99.90;;;;;;4788339;30;20185;-77
2023/04/20 02:42:02;;;;;;;11.88;3.15;;;8.80;99.90;;;;;;4788142;30;20323;-78
2023/04/20 02:44:28;;;;;;;9.20;2.83;;;8.80;99.90;;;;;;4771587;30;20203;-78
2023/04/20 02:46:54;;;;;;;7.40;2.63;;;8.80;99.90;;;;;;4768079;30;20189;-78
2023/04/20 02:49:22;;;;;;;7.80;3.00;;;8.80;99.90;;;;;;4754942;30;20197;-77
2023/04/20 02:51:48;;;;;;;7.75;2.88;;;8.80;99.90;;;;;;4762513;30;20201;-77
2023/04/20 02:54:14;;;;;;;9.25;3.10;;;8.80;99.90;;;;;;4770485;29;20226;-80
2023/04/20 02:56:40;;;;;;;8.13;3.30;;;8.80;99.90;;;;;;4768520;30;20185;-78
2023/04/20 02:59:08;;;;;;;10.45;2.90;;;8.90;99.90;;;;;;4772386;30;20193;-78
2023/04/20 03:01:56;;;;;;;6.38;2.80;;;8.90;99.90;;;;;;4765116;30;20232;-78
2023/04/20 03:04:24;;;;;;;11.88;2.67;;;8.90;99.90;;;;;;4769185;30;20568;-78
2023/04/20 03:07:08;;;;;;;7.28;2.80;;;9.00;99.90;;;;;;4756769;30;20205;-78
2023/04/20 03:09:36;;;;;;;4.95;2.78;;;9.00;99.90;;;;;;4754449;30;20199;-78
2023/04/20 03:12:13;;;;;;;6.15;3.08;;;9.10;99.90;;;;;;4754088;30;20677;-78
2023/04/20 03:14:59;;;;;;;6.68;2.80;;;9.10;99.90;;;;;;4754381;30;20286;-80
2023/04/20 03:17:39;;;;;;;4.65;2.33;;;9.10;99.90;;;;;;4767106;30;20192;-78
2023/04/20 03:20:07;;;;;;;6.90;2.80;;;9.10;99.90;;;;;;4738490;30;20197;-79
2023/04/20 03:22:34;;;;;;;7.68;3.00;;;9.20;99.90;;;;;;4751917;30;20312;-79
2023/04/20 03:25:01;;;;;;;7.93;2.38;;;9.20;99.90;;;;;;4757650;30;20192;-78
2023/04/20 03:27:49;;;;;;;4.55;2.72;;;9.20;99.90;;;;;;4787742;29;20653;-78
2023/04/20 03:30:15;;;;;;;7.20;2.50;;;9.30;99.90;;;;;;4771669;30;20225;-78
2023/04/20 03:32:44;;;;;;;6.50;2.80;;;9.30;99.90;;;;;;4774503;30;20201;-78
2023/04/20 03:35:10;;;;;;;8.10;3.10;;;9.30;99.90;;;;;;4771165;30;20757;-78
2023/04/20 03:37:36;;;;;;;10.02;2.90;;;9.30;99.90;;;;;;4770626;30;20267;-83
2023/04/20 03:40:06;;;;;;;6.30;2.60;;;9.30;99.90;;;;;;4767282;30;20288;-78
2023/04/20 03:42:32;;;;;;;7.88;2.80;;;9.30;99.90;;;;;;4781615;30;20377;-78
2023/04/20 03:44:57;;;;;;;6.72;2.50;;;9.40;99.90;;;;;;4788066;30;20868;-78
2023/04/20 03:47:23;;;;;;;7.57;2.50;;;9.40;99.90;;;;;;4770981;30;20216;-78
2023/04/20 03:49:49;;;;;;;7.07;2.38;;;9.40;99.90;;;;;;4780074;29;20560;-79
2023/04/20 03:52:15;;;;;;;3.95;2.38;;;9.40;99.90;;;;;;4756004;30;20197;-80
2023/04/20 03:54:41;;;;;;;6.57;2.42;;;9.40;99.90;;;;;;4786342;30;20200;-78
2023/04/20 03:57:09;;;;;;;8.63;3.00;;;9.40;99.60;;;;;;4774132;29;20217;-80
2023/04/20 03:59:37;;;;;;;4.82;2.60;;;9.40;99.40;;;;;;4787415;30;20193;-78
2023/04/20 04:02:06;;;;;;;7.07;2.72;;;9.40;99.10;;;;;;4736562;30;20279;-83
2023/04/20 04:04:32;;;;;;;15.85;2.63;;;9.40;99.10;;;;;;4769774;30;20197;-80
2023/04/20 04:06:58;;;;;;;6.68;2.67;;;9.40;99.00;;;;;;4762569;30;20193;-79
2023/04/20 04:09:25;;;;;;;4.22;2.28;;;9.40;98.90;;;;;;4781980;30;20205;-78
2023/04/20 04:11:51;;;;;;;5.70;2.63;;;9.40;98.80;;;;;;4768178;30;20197;-78
2023/04/20 04:14:18;;;;;;;8.48;2.90;;;9.40;98.70;;;;;;4767951;30;20241;-78
2023/04/20 04:16:43;;;;;;;8.52;2.45;;;9.40;98.70;;;;;;4745934;30;20208;-78
2023/04/20 04:19:11;;;;;;;10.35;2.65;;;9.40;98.70;;;;;;4742812;30;20193;-78
2023/04/20 04:21:37;;;;;;;6.95;2.67;;;9.40;98.40;;;;;;4762233;30;20276;-79
2023/04/20 04:24:04;;;;;;;6.13;2.58;;;9.40;98.30;;;;;;4735694;30;20189;-78
2023/04/20 04:26:55;;;;;;;5.95;2.55;;;9.30;98.30;;;;;;4760689;30;20201;-78
2023/04/20 04:29:22;;;;;;;8.48;2.25;;;9.30;98.10;;;;;;4742496;30;20263;-78
2023/04/20 04:31:47;;;;;;;7.72;2.67;;;9.40;98.00;;;;;;4756287;30;20209;-78
2023/04/20 04:34:17;;;;;;;7.40;2.53;;;9.30;97.70;;;;;;4756878;30;20198;-78
2023/04/20 04:36:46;;;;;;;10.45;2.45;;;9.30;97.50;;;;;;4746052;30;20628;-78
2023/04/20 04:39:16;;;;;;;6.32;2.63;;;9.30;97.30;;;;;;4757324;30;20200;-77
2023/04/20 04:41:50;;;;;;;5.47;2.30;;;9.30;96.90;;;;;;4756099;30;20228;-78
2023/04/20 04:44:39;;;;;;;5.30;2.60;;;9.30;96.90;;;;;;4753873;30;20198;-78
2023/04/20 04:47:08;;;;;;;5.55;2.45;;;9.20;96.70;;;;;;4756346;30;20681;-79
2023/04/20 04:49:36;;;;;;;5.45;2.50;;;9.20;96.60;;;;;;4771776;30;20181;-77
2023/04/20 04:52:02;;;;;;;4.80;2.70;;;9.20;96.80;;;;;;4744409;30;20341;-76
2023/04/20 04:54:28;;;;;;;5.40;2.25;;;9.20;96.40;;;;;;4750029;30;20206;-76
2023/04/20 04:56:54;;;;;;;6.28;2.50;;;9.20;96.50;;;;;;4757820;30;20186;-77
2023/04/20 04:59:20;;;;;;;5.30;2.40;;;9.20;96.60;;;;;;4768083;30;20186;-76
2023/04/20 05:01:46;;;;;;;12.82;2.70;;;9.20;96.70;;;;;;4767079;30;20575;-79
2023/04/20 05:04:11;;;;;;;11.02;2.50;;;9.20;96.90;;;;;;4757246;30;20212;-80
2023/04/20 05:06:37;;;;;;;7.78;2.90;;;9.20;97.20;;;;;;4743610;30;20228;-81
2023/04/20 05:09:03;;;;;;;5.65;2.80;;;9.20;97.30;;;;;;4751042;30;20204;-78
2023/04/20 05:11:30;;;;;;;7.30;2.50;;;9.20;97.40;;;;;;4757243;30;20685;-81
2023/04/20 05:13:56;;;;;;;8.75;2.67;;;9.20;97.50;;;;;;4753308;29;20284;-80
2023/04/20 05:16:22;;;;;;;4.60;2.40;;;9.20;97.50;;;;;;4789242;30;20421;-79
2023/04/20 05:18:48;;;;;;;3.83;2.33;;;9.20;97.50;;;;;;4789251;30;20196;-79
2023/04/20 05:21:13;;;;;;;6.03;2.28;;;9.20;97.50;;;;;;4773692;30;20197;-79
2023/04/20 05:23:39;;;;;;;5.05;2.47;;;9.20;97.70;;;;;;4771454;29;20833;-79
2023/04/20 05:26:05;;;;;;;5.82;2.90;;;9.20;98.10;;;;;;4772005;29;20594;-79
2023/04/20 05:28:36;;;;;;;9.30;2.55;;;9.10;98.20;;;;;;4787886;29;20569;-79
2023/04/20 05:31:01;;;;;;;12.05;2.67;;;9.10;98.50;;;;;;4789239;30;20254;-79
2023/04/20 05:33:27;;;;;;;7.55;2.55;;;9.10;99.00;;;;;;4766909;29;20675;-82
2023/04/20 05:35:56;;;;;;;5.32;2.60;;;9.10;99.00;;;;;;4772181;30;20280;-79
2023/04/20 05:38:24;;;;;;;7.05;2.58;;;9.10;99.20;;;;;;4773542;30;20200;-80
2023/04/20 05:40:50;;;;;;;7.47;2.80;;;9.00;99.50;;;;;;4792283;29;20290;-79
2023/04/20 05:43:17;;;;;;;6.38;3.00;;;9.00;99.50;;;;;;4792292;29;20228;-79
2023/04/20 05:45:44;;;;;;;8.32;2.67;;;9.00;99.60;;;;;;4785105;29;20681;-79
2023/04/20 05:48:10;;;;;;;7.15;2.70;;;9.00;99.70;;;;;;4789696;30;20196;-80
2023/04/20 05:50:35;;;;;;;7.93;2.65;;;9.00;99.80;;;;;;4773239;30;20216;-79
2023/04/20 05:53:01;;;;;;;8.30;2.65;;;9.00;99.90;;;;;;4788446;30;20697;-79
2023/04/20 05:55:27;;;;;;;7.88;3.20;;;9.00;99.90;;;;;;4787625;29;20235;-78
2023/04/20 05:57:53;;;;;;;8.70;2.78;;;9.00;99.90;;;;;;4789671;29;20261;-80
2023/04/20 06:00:19;;;;;;;4.82;2.53;;;9.00;99.90;;;;;;4772885;30;20191;-81
2023/04/20 06:02:45;;;;;;;4.65;2.40;;;9.00;99.90;;;;;;4788892;30;20221;-79
2023/04/20 06:05:11;;;;;;;10.15;2.92;;;9.00;99.90;;;;;;4784971;29;20197;-79
2023/04/20 06:07:37;;;;;;;9.27;2.65;;;9.00;99.90;;;;;;4771801;30;20262;-77
2023/04/20 06:10:04;;;;;;;7.35;2.70;;;9.00;99.90;;;;;;4779204;30;20264;-78
2023/04/20 06:12:30;;;;;;;11.23;3.10;;;8.90;99.90;;;;;;4777022;30;20200;-78
2023/04/20 06:14:56;;;;;;;6.90;2.40;;;8.90;99.90;;;;;;4771422;30;20233;-78
2023/04/20 06:17:22;;;;;;;9.38;2.92;;;9.00;99.90;;;;;;4772392;30;20189;-79
2023/04/20 06:19:48;;;;;;;7.60;2.63;;;8.90;99.90;;;;;;4772268;30;20245;-79
2023/04/20 06:22:15;;;;;;;6.95;2.70;;;8.90;99.90;;;;;;4772677;30;20220;-78
2023/04/20 06:24:41;;;;;;;7.75;3.08;;;8.90;99.90;;;;;;4772785;30;20184;-77
2023/04/20 06:27:10;;;;;;;8.15;2.67;;;8.90;99.90;;;;;;4759749;30;20190;-78
2023/04/20 06:29:37;;;;;;;6.47;2.70;;;8.90;99.90;;;;;;4770152;30;20205;-78
2023/04/20 06:32:03;;;;;;;7.97;2.80;;;8.90;99.90;;;;;;4789935;29;20755;-80
2023/04/20 06:34:29;;;;;;;6.00;2.88;;;8.90;99.90;;;;;;4747242;30;20207;-79
2023/04/20 06:36:55;;;;;;;5.18;2.63;;;8.80;99.90;;;;;;4773035;29;20193;-79
2023/04/20 06:39:20;;;;;;;5.53;2.60;;;8.80;99.90;;;;;;4760293;30;20201;-79
2023/04/20 06:41:46;;;;;;;9.88;2.70;;;8.80;99.90;;;;;;4754239;30;20255;-78
2023/04/20 06:44:13;;;;;;;9.13;3.15;;;8.80;99.90;;;;;;4755440;30;20542;-78
2023/04/20 06:46:39;;;;;;;7.32;2.95;;;8.70;99.90;;;;;;4778664;29;20196;-77
2023/04/20 06:49:05;;;;;;;5.53;2.97;;;8.70;99.90;;;;;;4787719;29;20193;-78
2023/04/20 06:51:33;;;;;;;5.15;2.80;;;8.60;99.90;;;;;;4769029;30;20201;-78
2023/04/20 06:53:59;;;;;;;6.80;3.30;;;8.60;99.90;;;;;;4780363;30;20214;-79
2023/04/20 06:56:25;;;;;;;8.15;2.70;;;8.60;99.90;;;;;;4781830;29;20205;-78
2023/04/20 06:58:51;;;;;;;5.50;3.30;;;8.60;99.90;;;;;;4806631;29;20180;-78
2023/04/20 07:01:16;;;;;;;7.57;2.95;;;8.60;99.90;;;;;;4801343;29;20715;-78
2023/04/20 07:03:42;;;;;;;9.10;3.10;;;8.60;99.90;;;;;;4786916;29;20228;-80
2023/04/20 07:06:10;;;;;;;9.85;3.60;;;8.60;99.90;;;;;;4769325;30;20294;-79
2023/04/20 07:08:36;;;;;;;11.55;3.80;;;8.60;99.90;;;;;;4780621;30;20185;-78
2023/04/20 07:11:01;;;;;;;7.80;3.67;;;8.60;99.90;;;;;;4785877;30;20681;-79
2023/04/20 07:13:30;;;;;;;11.45;3.60;;;8.50;99.90;;;;;;4759707;30;20685;-77
2023/04/20 07:15:56;;;;;;;9.82;3.63;;;8.50;99.90;;;;;;4787113;29;20339;-79
2023/04/20 07:18:21;;;;;;;7.70;3.30;;;8.60;99.90;;;;;;4779594;30;20670;-78
2023/04/20 07:20:47;;;;;;;8.55;3.33;;;8.50;99.90;;;;;;4755515;30;20190;-78
2023/04/20 07:23:13;;;;;;;7.22;3.45;;;8.50;99.90;;;;;;4770149;30;20224;-77
2023/04/20 07:25:39;;;;;;;9.52;3.85;;;8.50;99.90;;;;;;4768242;30;20214;-77
2023/04/20 07:28:05;;;;;;;5.63;3.15;;;8.50;99.90;;;;;;4757837;30;20204;-76
2023/04/20 07:30:31;;;;;;;5.93;3.45;;;8.40;99.90;;;;;;4753884;30;20189;-76
2023/04/20 07:32:57;;;;;;;9.32;3.88;;;8.40;99.90;;;;;;4778998;30;20260;-76
2023/04/20 07:35:22;;;;;;;7.68;3.15;;;8.40;99.90;;;;;;4786921;30;20265;-77
2023/04/20 07:37:48;;;;;;;7.05;3.67;;;8.40;99.90;;;;;;4770113;30;20199;-77
2023/04/20 07:40:15;;;;;;;6.70;3.40;;;8.40;99.90;;;;;;4769524;30;20206;-77
2023/04/20 07:42:41;;;;;;;6.82;3.05;;;8.30;99.90;;;;;;4781450;30;20242;-78
2023/04/20 07:45:09;;;;;;;7.95;3.88;;;8.30;99.90;;;;;;4779965;30;20567;-77
2023/04/20 07:47:36;;;;;;;7.10;3.50;;;8.30;99.90;;;;;;4766075;30;20650;-78
2023/04/20 07:50:03;;;;;;;6.80;3.40;;;8.30;99.90;;;;;;4786938;29;20228;-78
2023/04/20 07:52:29;;;;;;;6.00;3.83;;;8.40;99.90;;;;;;4790897;30;20193;-79
2023/04/20 07:54:58;;;;;;;6.20;3.60;;;8.40;99.90;;;;;;4773841;30;20559;-79
2023/04/20 07:57:28;;;;;;;7.25;3.70;;;8.40;99.90;;;;;;4800298;29;20653;-77
2023/04/20 07:59:54;;;;;;;7.53;3.60;;;8.40;99.90;;;;;;4796329;29;20188;-79
2023/04/20 08:02:20;;;;;;;5.00;3.45;;;8.40;99.90;;;;;;4763628;30;20225;-79
2023/04/20 08:04:47;;;;;;;7.85;3.60;;;8.30;99.90;;;;;;4742411;30;20225;-78
2023/04/20 08:07:13;;;;;;;7.40;3.45;;;8.30;99.90;;;;;;4787466;30;20574;-78
2023/04/20 08:09:38;;;;;;;8.10;4.03;;;8.30;99.90;;;;;;4775352;30;20265;-78
2023/04/20 08:12:04;;;;;;;8.70;3.58;;;8.30;99.90;;;;;;4773523;30;20324;-79
2023/04/20 08:14:31;;;;;;;5.78;3.38;;;8.30;99.90;;;;;;4769548;30;20243;-79
2023/04/20 08:16:56;;;;;;;8.60;4.07;;;8.30;99.90;;;;;;4756750;30;20194;-78
2023/04/20 08:19:22;;;;;;;5.72;3.47;;;8.30;99.90;;;;;;4739253;30;20205;-78
2023/04/20 08:21:51;;;;;;;6.53;3.90;;;8.30;99.90;;;;;;4776956;29;20283;-79
2023/04/20 08:24:17;;;;;;;12.38;4.22;;;8.30;99.90;;;;;;4773063;30;20657;-78
2023/04/20 08:26:42;;;;;;;6.50;4.03;;;8.30;99.90;;;;;;4790147;30;20212;-79
2023/04/20 08:29:08;;;;;;;5.57;3.80;;;8.30;99.90;;;;;;4787207;30;20273;-79
2023/04/20 08:31:34;;;;;;;7.40;3.78;;;8.30;99.90;;;;;;4768745;30;20214;-78
2023/04/20 08:34:00;;;;;;;5.68;3.88;;;8.30;99.90;;;;;;4757898;30;20219;-78
2023/04/20 08:36:26;;;;;;;7.82;4.18;;;8.30;99.90;;;;;;4765814;30;20193;-79
2023/04/20 08:39:08;;;;;;;9.77;4.20;;;8.30;99.90;;;;;;4776190;30;20197;-78
2023/04/20 08:41:34;;;;;;;10.73;4.70;;;8.20;99.90;;;;;;4781778;30;20193;-79
2023/04/20 08:44:00;;;;;;;14.88;4.75;;;8.20;99.90;;;;;;4770312;30;20228;-78
2023/04/20 08:46:26;;;;;;;8.80;4.65;;;8.20;99.90;;;;;;4770336;30;20193;-79
2023/04/20 08:48:55;;;;;;;10.00;4.95;;;8.20;99.90;;;;;;4775613;30;20198;-79
2023/04/20 08:51:21;;;;;;;11.05;5.03;;;8.30;99.90;;;;;;4775867;30;20292;-78
2023/04/20 08:53:47;;;;;;;10.70;4.88;;;8.30;99.90;;;;;;4786946;29;20666;-79
2023/04/20 08:56:13;;;;;;;9.73;4.82;;;8.30;99.90;;;;;;4757411;30;20208;-79
2023/04/20 08:58:41;;;;;;;9.48;4.25;;;8.40;99.90;;;;;;4764446;30;20676;-78
2023/04/20 09:01:11;;;;;;;7.88;5.05;;;8.40;99.90;;;;;;4760752;30;20312;-78
2023/04/20 09:03:38;;;;;;;11.32;4.85;;;8.40;99.90;;;;;;4778970;29;20235;-79
2023/04/20 09:06:12;;;;;;;7.60;4.50;;;8.50;99.90;;;;;;4760743;30;20254;-78
2023/04/20 09:08:40;;;;;;;10.07;4.60;;;8.50;99.90;;;;;;4756762;30;20196;-77
2023/04/20 09:11:06;;;;;;;9.45;4.88;;;8.60;99.90;;;;;;4757208;30;20241;-78
2023/04/20 09:13:32;;;;;;;8.98;4.90;;;8.60;99.90;;;;;;4774238;30;20196;-80
2023/04/20 09:16:09;;;;;;;8.80;4.63;;;8.60;99.90;;;;;;4791413;29;20235;-79
2023/04/20 09:18:36;;;;;;;8.60;4.85;;;8.70;99.90;;;;;;4771908;30;20208;-79
2023/04/20 09:21:09;;;;;;;9.18;4.82;;;8.70;99.90;;;;;;4785556;30;20643;-78
2023/04/20 09:23:35;;;;;;;11.75;4.72;;;8.70;99.90;;;;;;4789451;30;20221;-79
2023/04/20 09:26:01;;;;;;;13.75;5.50;;;8.70;99.90;;;;;;4786984;29;20607;-79
2023/04/20 09:28:45;;;;;;;9.80;5.40;;;8.80;99.90;;;;;;4777134;29;20605;-83
2023/04/20 09:31:21;;;;;;;10.38;4.82;;;8.70;99.90;;;;;;4760283;30;20221;-79
2023/04/20 09:34:01;;;;;;;8.00;5.15;;;8.80;99.90;;;;;;4757743;30;20185;-84
2023/04/20 09:36:50;;;;;;;15.18;5.63;;;8.80;99.90;;;;;;4769910;29;20253;-80
2023/04/20 09:39:18;;;;;;;8.13;5.00;;;8.80;99.90;;;;;;4786536;30;20667;-77
2023/04/20 09:41:44;;;;;;;11.43;5.45;;;8.80;99.90;;;;;;4787815;30;20289;-79
2023/04/20 09:44:11;;;;;;;11.68;5.38;;;8.70;99.90;;;;;;4786538;30;20207;-77
2023/04/20 09:46:40;;;;;;;10.80;5.15;;;8.70;99.90;;;;;;4754243;30;20193;-81
2023/04/20 09:49:07;;;;;;;11.18;5.88;;;8.70;99.90;;;;;;4769453;30;20185;-80
2023/04/20 09:51:40;;;;;;;10.75;5.32;;;8.80;99.90;;;;;;4785558;30;20204;-79
2023/04/20 09:54:06;;;;;;;11.55;5.43;;;8.90;99.90;;;;;;4788925;30;20619;-79
2023/04/20 09:56:34;;;;;;;9.50;5.22;;;8.90;99.90;;;;;;4787280;30;20240;-79
2023/04/20 09:59:01;;;;;;;9.02;5.47;;;9.00;99.90;;;;;;4763100;30;20207;-79
2023/04/20 10:01:30;;;;;;;10.38;5.68;;;9.00;99.90;;;;;;4786581;30;20320;-79
2023/04/20 10:03:58;;;;;;;9.23;5.28;;;9.10;99.90;;;;;;4772776;30;20228;-79
2023/04/20 10:06:23;;;;;;;8.35;5.90;;;9.10;99.90;;;;;;4771767;30;20209;-78
2023/04/20 10:08:50;;;;;;;8.30;5.38;;;9.10;99.90;;;;;;4771330;30;20203;-79
2023/04/20 10:11:32;;;;;;;9.73;5.20;;;9.20;99.90;;;;;;4769952;30;20189;-80
2023/04/20 10:14:00;;;;;;;10.82;5.32;;;9.20;99.90;;;;;;4788361;29;20195;-79
2023/04/20 10:16:26;;;;;;;12.75;5.88;;;9.30;99.90;;;;;;4787396;29;20235;-79
2023/04/20 10:19:00;;;;;;;8.88;5.60;;;9.30;99.90;;;;;;4771802;30;20200;-79
2023/04/20 10:21:26;;;;;;;8.50;5.50;;;9.30;99.90;;;;;;4783706;30;20651;-80
2023/04/20 10:23:53;;;;;;;10.18;5.93;;;9.40;99.90;;;;;;4762264;30;20292;-79
2023/04/20 10:26:19;;;;;;;11.20;5.82;;;9.30;99.90;;;;;;4768424;30;20621;-79
2023/04/20 10:28:45;;;;;;;10.40;5.85;;;9.30;99.90;;;;;;4769829;30;20201;-80
2023/04/20 10:31:12;;;;;;;9.93;6.00;;;9.30;99.90;;;;;;4785289;29;21933;-79
2023/04/20 10:33:52;;;;;;;13.95;6.15;;;9.30;99.90;;;;;;4772358;30;20265;-80
2023/04/20 10:36:33;;;;;;;9.52;5.60;;;9.20;99.90;;;;;;4784397;30;20193;-78
2023/04/20 10:39:04;;;;;;;10.02;5.82;;;9.20;99.90;;;;;;4779747;30;20304;-78
2023/04/20 10:41:30;;;;;;;13.20;6.20;;;9.20;99.90;;;;;;4784706;29;20216;-77
2023/04/20 10:44:07;;;;;;;10.85;5.93;;;9.10;99.90;;;;;;4772426;30;20262;-80
2023/04/20 10:46:33;;;;;;;12.70;6.00;;;9.10;99.90;;;;;;4770788;30;20219;-80
2023/04/20 10:49:00;;;;;;;10.60;6.35;;;9.10;99.90;;;;;;4788184;30;20638;-79
2023/04/20 10:51:27;;;;;;;12.50;6.28;;;9.10;99.90;;;;;;4769470;30;20181;-78
2023/04/20 10:53:59;;;;;;;11.05;6.20;;;9.10;99.90;;;;;;4764049;30;20265;-78
2023/04/20 10:56:26;;;;;;;12.30;6.22;;;9.10;99.90;;;;;;4779013;29;20283;-79
2023/04/20 10:58:52;;;;;;;14.13;6.50;;;9.10;99.90;;;;;;4776447;30;20197;-78
2023/04/20 11:01:18;;;;;;;11.63;6.72;;;9.20;99.90;;;;;;4769091;30;20258;-79
2023/04/20 11:03:50;;;;;;;13.23;6.68;;;9.20;99.90;;;;;;4763974;30;20694;-79
2023/04/20 11:06:17;;;;;;;9.35;6.45;;;9.20;99.90;;;;;;4772196;30;20205;-79
2023/04/20 11:08:42;;;;;;;15.13;6.95;;;9.30;99.90;;;;;;4787694;30;20190;-79
2023/04/20 11:11:26;;;;;;;14.38;7.22;;;9.20;99.90;;;;;;4769118;29;20208;-79
2023/04/20 11:14:06;;;;;;;10.48;6.57;;;9.30;99.90;;;;;;4771774;30;20212;-79
2023/04/20 11:16:32;;;;;;;12.18;6.85;;;9.20;99.90;;;;;;4786409;29;20721;-79
2023/04/20 11:18:58;;;;;;;12.35;7.13;;;9.20;99.90;;;;;;4772210;30;20199;-80
2023/04/20 11:21:36;;;;;;;12.77;7.07;;;9.20;99.90;;;;;;4758496;29;20565;-80
2023/04/20 11:24:02;;;;;;;15.30;7.15;;;9.20;99.90;;;;;;4769006;30;20686;-81
2023/04/20 11:26:36;;;;;;;10.50;6.93;;;9.20;99.90;;;;;;4770380;30;20648;-80
2023/04/20 11:29:02;;;;;;;11.65;6.78;;;9.20;99.90;;;;;;4787646;30;20192;-80
2023/04/20 11:31:28;;;;;;;13.35;7.60;;;9.20;99.90;;;;;;4786949;30;20201;-80
2023/04/20 11:33:54;;;;;;;14.07;6.88;;;9.20;99.90;;;;;;4786495;29;20199;-79
2023/04/20 11:36:27;;;;;;;11.35;6.88;;;9.30;99.90;;;;;;4787821;30;20279;-79
2023/04/20 11:38:53;;;;;;;9.95;6.47;;;9.30;99.90;;;;;;4773525;30;20638;-79
2023/04/20 11:41:19;;;;;;;13.23;7.75;;;9.30;99.90;;;;;;4786997;30;20184;-79
2023/04/20 11:43:45;;;;;;;12.57;7.20;;;9.30;99.90;;;;;;4785314;29;20270;-81
2023/04/20 11:46:20;;;;;;;13.35;7.85;;;9.30;99.90;;;;;;4771481;30;20192;-79
2023/04/20 11:48:46;;;;;;;16.25;7.82;;;9.30;99.90;;;;;;4770600;30;20196;-79
2023/04/20 11:51:13;;;;;;;14.02;7.35;;;9.30;99.90;;;;;;4787556;30;20232;-79
2023/04/20 11:53:39;;;;;;;13.10;7.50;;;9.30;99.90;;;;;;4787409;30;20668;-80
2023/04/20 11:56:05;;;;;;;14.48;7.85;;;9.30;99.90;;;;;;4784388;29;20188;-79
2023/04/20 11:58:31;;;;;;;17.42;7.78;;;9.30;99.90;;;;;;4785862;29;20201;-79
2023/04/20 12:00:58;;;;;;;14.07;8.90;;;9.30;99.90;;;;;;4756615;30;20207;-79
2023/04/20 12:03:25;;;;;;;14.63;9.18;;;9.40;99.90;;;;;;4787559;30;20311;-79
2023/04/20 12:05:51;;;;;;;13.95;8.70;;;9.50;99.90;;;;;;4771679;30;20181;-78
2023/04/20 12:08:17;;;;;;;13.32;8.38;;;9.70;99.90;;;;;;4786727;29;20245;-79
2023/04/20 12:10:43;;;;;;;15.30;8.85;;;9.90;99.90;;;;;;4786344;29;20196;-80
2023/04/20 12:13:09;;;;;;;17.60;9.13;;;10.10;99.90;;;;;;4783982;29;20199;-79
2023/04/20 12:15:35;;;;;;;15.68;8.60;;;10.20;99.90;;;;;;4769293;30;20233;-79
2023/04/20 12:18:01;;;;;;;15.18;9.00;;;10.20;99.90;;;;;;4769721;30;20225;-78
2023/04/20 12:20:27;;;;;;;17.27;9.07;;;10.20;99.90;;;;;;4751976;30;20218;-79
2023/04/20 12:22:52;;;;;;;16.83;9.57;;;10.20;99.90;;;;;;4754367;29;20225;-78
2023/04/20 12:25:19;;;;;;;15.73;8.82;;;10.30;99.90;;;;;;4786484;29;20212;-78
2023/04/20 12:27:45;;;;;;;15.80;9.57;;;10.30;99.90;;;;;;4787146;30;20233;-79
2023/04/20 12:30:12;;;;;;;16.73;8.95;;;10.40;99.90;;;;;;4784272;29;20665;-79
2023/04/20 12:32:38;;;;;;;14.82;9.35;;;10.40;99.90;;;;;;4788898;29;20196;-79
2023/04/20 12:35:04;;;;;;;14.38;9.77;;;10.40;99.90;;;;;;4770115;30;20586;-78
2023/04/20 12:37:30;;;;;;;16.20;9.68;;;10.40;99.90;;;;;;4789641;29;20537;-78
2023/04/20 12:39:56;;;;;;;16.33;9.35;;;10.40;99.90;;;;;;4787463;29;20201;-78
2023/04/20 12:42:22;;;;;;;15.20;9.50;;;10.40;99.90;;;;;;4774904;30;20224;-79
2023/04/20 12:44:48;;;;;;;13.40;8.82;;;10.50;99.90;;;;;;4788489;29;20197;-78
2023/04/20 12:47:13;;;;;;;11.30;8.27;;;10.50;99.90;;;;;;4789804;29;20579;-79
2023/04/20 12:49:39;;;;;;;15.15;8.38;;;10.70;99.90;;;;;;4790326;30;20261;-79
2023/04/20 12:52:05;;;;;;;13.35;7.95;;;10.70;99.90;;;;;;4774131;30;20189;-78
2023/04/20 12:54:31;;;;;;;11.77;8.02;;;10.90;99.90;;;;;;4788810;30;20219;-79